TimeEST,TemperatureF,Dew PointF,Humidity,Sea Level PressureIn,VisibilityMPH,Wind Direction,Wind SpeedMPH,Gust SpeedMPH,PrecipitationIn,Events,Conditions,WindDirDegrees,DateUTC
12:10 AM,28.4,28.4,100,30.14,1.2,NW,5.8,-,0.01,Snow,Light Snow,320,2013-12-06 05:10:00
12:27 AM,28.4,26.6,93,30.14,2.0,NW,6.9,-,0.01,Snow,Light Snow,310,2013-12-06 05:27:00
12:34 AM,28.4,26.6,93,30.14,1.2,NW,6.9,-,0.01,Snow,Light Snow,310,2013-12-06 05:34:00
12:53 AM,28.0,26.1,92,30.15,1.2,WNW,6.9,-,0.02,Snow,Light Snow,300,2013-12-06 05:53:00
1:00 AM,28.4,26.6,93,30.14,1.2,WNW,5.8,-,0.00,Snow,Light Snow,290,2013-12-06 06:00:00
1:20 AM,28.4,26.6,93,30.14,2.5,West,5.8,-,0.00,Snow,Light Snow,280,2013-12-06 06:20:00
1:36 AM,28.4,26.6,93,30.13,3.0,WNW,6.9,-,0.00,Snow,Light Snow,290,2013-12-06 06:36:00
1:53 AM,28.0,26.1,92,30.15,4.0,WNW,6.9,-,0.01,Snow,Light Snow,290,2013-12-06 06:53:00
2:53 AM,28.9,25.0,85,30.15,9.0,WNW,4.6,-,0.00,,Overcast,290,2013-12-06 07:53:00
3:53 AM,28.9,25.0,85,30.17,9.0,West,5.8,-,N/A,,Overcast,280,2013-12-06 08:53:00
4:53 AM,28.9,25.0,85,30.20,9.0,West,5.8,-,N/A,,Overcast,280,2013-12-06 09:53:00
5:53 AM,28.9,24.1,82,30.20,10.0,West,4.6,-,N/A,,Overcast,280,2013-12-06 10:53:00
6:53 AM,28.9,24.1,82,30.20,10.0,West,4.6,-,N/A,,Overcast,280,2013-12-06 11:53:00
7:53 AM,28.9,24.1,82,30.23,10.0,WNW,5.8,-,N/A,,Overcast,290,2013-12-06 12:53:00
8:53 AM,30.0,23.0,75,30.23,10.0,NW,5.8,-,N/A,,Overcast,310,2013-12-06 13:53:00
9:53 AM,30.0,23.0,75,30.25,10.0,NNW,6.9,-,N/A,,Scattered Clouds,330,2013-12-06 14:53:00
10:53 AM,30.9,21.9,69,30.27,10.0,NNW,9.2,-,N/A,,Overcast,330,2013-12-06 15:53:00
11:53 AM,30.0,21.9,72,30.28,10.0,NNW,10.4,-,N/A,,Overcast,340,2013-12-06 16:53:00
12:53 PM,30.0,21.9,72,30.24,10.0,North,5.8,-,N/A,,Overcast,350,2013-12-06 17:53:00
1:53 PM,30.0,21.9,72,30.23,10.0,NNW,6.9,-,N/A,,Overcast,340,2013-12-06 18:53:00
2:53 PM,30.0,21.0,69,30.24,10.0,NW,9.2,-,N/A,,Overcast,320,2013-12-06 19:53:00
3:53 PM,30.0,21.0,69,30.25,10.0,NNW,9.2,-,N/A,,Overcast,340,2013-12-06 20:53:00
4:53 PM,28.0,21.9,78,30.28,4.0,NW,5.8,-,0.00,Snow,Light Snow,320,2013-12-06 21:53:00
5:11 PM,28.4,21.2,74,30.26,2.5,North,6.9,-,0.00,Snow,Light Snow,360,2013-12-06 22:11:00
5:34 PM,28.4,21.2,74,30.24,3.0,North,4.6,-,0.00,Snow,Light Snow,10,2013-12-06 22:34:00
5:53 PM,28.0,21.9,78,30.27,7.0,North,4.6,-,0.00,Snow,Light Snow,10,2013-12-06 22:53:00
6:18 PM,28.4,21.2,74,30.27,4.0,North,10.4,-,0.00,Snow,Light Snow,10,2013-12-06 23:18:00
6:29 PM,28.4,19.4,69,30.27,2.5,North,5.8,-,0.00,Snow,Light Snow,10,2013-12-06 23:29:00
6:31 PM,28.4,19.4,69,30.26,3.0,North,8.1,-,0.00,Snow,Light Snow,10,2013-12-06 23:31:00
6:44 PM,28.4,21.2,74,30.27,8.0,NNE,4.6,-,0.00,Snow,Light Snow,20,2013-12-06 23:44:00
6:53 PM,28.0,21.0,75,30.30,10.0,North,3.5,-,0.00,,Overcast,360,2013-12-06 23:53:00
7:17 PM,28.4,21.2,74,30.29,10.0,Calm,Calm,-,N/A,,Overcast,0,2013-12-07 00:17:00
7:40 PM,28.4,19.4,69,30.31,10.0,NNW,6.9,-,N/A,,Overcast,330,2013-12-07 00:40:00
7:53 PM,28.0,19.0,69,30.31,10.0,NNW,9.2,-,N/A,,Overcast,340,2013-12-07 00:53:00
8:53 PM,27.0,19.9,75,30.32,10.0,North,8.1,-,N/A,,Overcast,350,2013-12-07 01:53:00
9:53 PM,27.0,19.9,75,30.33,10.0,NNW,3.5,-,N/A,,Overcast,340,2013-12-07 02:53:00
10:53 PM,27.0,19.0,72,30.38,10.0,NW,9.2,-,0.00,,Overcast,320,2013-12-07 03:53:00
11:53 PM,26.1,19.0,75,30.39,10.0,NW,8.1,-,N/A,,Mostly Cloudy,320,2013-12-07 04:53:00